Pagrindinis puslapis
METAR-TAF:

METAR-TAF

Oro uostai :

Kiurasao, Nyderlandų Antilai

platuma: 12-12N, ilguma: 068-58W, Aukštis: 9 m

Dabartinis oras

Ataskaita buvo paskelbta 1 valandą ir 2 minutes, ne 08:00 UTC
Vėjas 13 kt iš Rytų/Pietryčių
Temperatūra 28°C
Drėgmė 74%
Slėgis 1012 hPa
Matomumas 10 km arba daugiau
Išsisklaidę debesys ne aukštis 1800 ft

METAR: TNCC 250800Z 12013KT 9999 SCT018 28/23 Q1012 NOSIG

Laikas: 05:02 (09:02 UTC)

Prognozė

Ataskaita buvo paskelbta 4 valandos ir 2 minutes, ne 05:00 UTC
Prognozė galioja nuo 25 metu 06 UTC su 26 metu 06 UTC
Vėjas 14 kt iš Rytų
Matomumas 10 km arba daugiau
Išsisklaidę debesys ne aukštis 1800 ft

TAF: TNCC 250500Z 2506/2606 10014KT 9999 SCT018

Orai ataskaitas ir orų prognozės (METAR, TAF).

turimą stotys yra geltonos ir raudonos taškus žemėlapyje.

Perkelti pele per norėdami pamatyti stoties vardą.

Tada spustelėkite, norėdami matyti oro stebėjimo ir prognozės.

Norėdami pakeisti žemėlapį: spustelėkite ant žalios mygtukų su juodo kryžiaus žemyn,; žalią mygtuką su brūkšneliu, jei norite nutolinti; arba žalių rodyklių gretimoms žemėlapius.


METAR-TAF: